createdAt,value
2019-05-03T00:02:21.807Z,3.80
2019-05-03T00:04:52.959Z,3.70
2019-05-03T00:07:22.336Z,3.70
2019-05-03T00:09:52.067Z,3.70
2019-05-03T00:12:22.156Z,3.60
2019-05-03T00:14:53.398Z,3.60
2019-05-03T00:17:22.092Z,3.50
2019-05-03T00:19:52.633Z,3.50
2019-05-03T00:22:21.706Z,3.50
2019-05-03T00:25:04.554Z,3.50
2019-05-03T00:27:21.826Z,3.50
2019-05-03T00:29:52.339Z,3.50
2019-05-03T00:32:21.666Z,3.50
2019-05-03T00:35:11.924Z,3.40
2019-05-03T00:37:42.032Z,3.40
2019-05-03T00:40:28.112Z,3.40
2019-05-03T00:42:57.592Z,3.40
2019-05-03T00:45:26.594Z,3.30
2019-05-03T00:47:55.159Z,3.30
2019-05-03T00:50:23.672Z,3.30
2019-05-03T00:53:05.342Z,3.20
2019-05-03T00:55:33.805Z,3.20
2019-05-03T00:58:02.590Z,3.20
2019-05-03T01:00:32.335Z,3.20
2019-05-03T01:03:02.168Z,3.20
2019-05-03T01:05:32.957Z,3.20
2019-05-03T01:08:01.946Z,3.20
2019-05-03T01:10:30.580Z,3.30
2019-05-03T01:12:59.096Z,3.40
2019-05-03T01:15:42.412Z,3.50
2019-05-03T01:18:12.671Z,3.70
2019-05-03T01:20:42.646Z,3.70
2019-05-03T01:23:12.418Z,3.80
2019-05-03T01:25:42.754Z,3.90
2019-05-03T01:28:12.236Z,3.90
2019-05-03T01:30:42.511Z,4.00
2019-05-03T01:33:12.115Z,4.10
2019-05-03T01:35:42.659Z,4.20
2019-05-03T01:38:11.731Z,4.30
2019-05-03T01:40:41.945Z,4.30
2019-05-03T01:43:11.694Z,4.30
2019-05-03T01:45:42.354Z,4.30
2019-05-03T01:48:12.599Z,4.30
2019-05-03T01:50:45.236Z,4.30
2019-05-03T01:53:18.040Z,4.20
2019-05-03T01:55:52.801Z,4.20
2019-05-03T01:58:23.523Z,4.10
2019-05-03T02:00:54.863Z,4.10
2019-05-03T02:03:41.721Z,4.10
2019-05-03T02:06:11.894Z,4.00
2019-05-03T02:08:41.815Z,3.90
2019-05-03T02:11:11.610Z,3.90
2019-05-03T02:13:40.353Z,3.90
2019-05-03T02:16:08.808Z,3.90
2019-05-03T02:18:37.387Z,3.90
2019-05-03T02:21:05.888Z,3.90
2019-05-03T02:23:43.249Z,3.80
2019-05-03T02:26:11.808Z,3.90
2019-05-03T02:28:42.182Z,3.90
2019-05-03T02:31:13.382Z,3.90
2019-05-03T02:33:43.440Z,3.80
2019-05-03T02:36:13.632Z,3.80
2019-05-03T02:38:43.010Z,3.80
2019-05-03T02:41:13.536Z,3.80
2019-05-03T02:43:45.251Z,3.80
2019-05-03T02:46:21.570Z,3.80
2019-05-03T02:49:06.748Z,3.80
2019-05-03T02:51:36.044Z,3.80
2019-05-03T02:54:05.661Z,3.80
2019-05-03T02:56:35.689Z,3.80
2019-05-03T02:59:06.162Z,3.70
2019-05-03T03:01:35.868Z,3.70
2019-05-03T03:04:05.349Z,3.70
2019-05-03T03:06:36.670Z,3.60
2019-05-03T03:09:06.800Z,3.60
2019-05-03T03:11:38.114Z,3.60
2019-05-03T03:14:09.865Z,3.60
2019-05-03T03:16:39.185Z,3.60
2019-05-03T03:19:07.920Z,3.60
2019-05-03T03:21:58.852Z,3.50
2019-05-03T03:24:30.247Z,3.50
2019-05-03T03:26:59.092Z,3.50
2019-05-03T03:29:28.049Z,3.50
2019-05-03T03:32:10.424Z,3.50
2019-05-03T03:34:55.067Z,3.50
2019-05-03T03:37:39.094Z,3.60
2019-05-03T03:40:07.786Z,3.60
2019-05-03T03:42:37.849Z,3.70
2019-05-03T03:45:06.883Z,3.60
2019-05-03T03:47:39.636Z,3.70
2019-05-03T03:50:09.606Z,3.70
2019-05-03T03:52:40.196Z,3.70
2019-05-03T03:55:09.885Z,3.70
2019-05-03T03:57:38.481Z,3.70
2019-05-03T04:00:08.211Z,3.70
2019-05-03T04:02:37.878Z,3.70
2019-05-03T04:05:08.141Z,3.70
2019-05-03T04:07:37.016Z,3.70
2019-05-03T04:10:07.111Z,3.70
2019-05-03T04:12:36.227Z,3.70
2019-05-03T04:15:10.453Z,3.70
2019-05-03T04:17:57.132Z,3.70
2019-05-03T04:20:27.808Z,3.70
2019-05-03T04:22:56.724Z,3.80
2019-05-03T04:25:26.105Z,3.80
2019-05-03T04:27:56.069Z,3.90
2019-05-03T04:30:25.707Z,3.90
2019-05-03T04:32:56.475Z,4.00
2019-05-03T04:35:26.601Z,4.00
2019-05-03T04:37:55.890Z,4.10
2019-05-03T04:40:26.055Z,4.10
2019-05-03T04:42:56.688Z,4.20
2019-05-03T04:45:25.797Z,4.30
2019-05-03T04:47:56.033Z,4.30
2019-05-03T04:50:25.554Z,4.40
2019-05-03T04:52:56.562Z,4.50
2019-05-03T04:55:26.705Z,4.50
2019-05-03T04:57:56.123Z,4.60
2019-05-03T05:00:25.787Z,4.70
2019-05-03T05:02:56.192Z,4.70
2019-05-03T05:05:26.063Z,4.70
2019-05-03T05:07:55.815Z,4.80
2019-05-03T05:10:45.506Z,5.00
2019-05-03T05:13:15.685Z,5.00
2019-05-03T05:15:46.021Z,5.10
2019-05-03T05:18:16.442Z,5.20
2019-05-03T05:20:49.510Z,5.30
2019-05-03T05:23:17.963Z,5.30
2019-05-03T05:25:50.773Z,5.40
2019-05-03T05:28:20.871Z,5.50
2019-05-03T05:30:49.690Z,5.50
2019-05-03T05:33:21.587Z,5.60
2019-05-03T05:35:51.348Z,5.70
2019-05-03T05:38:20.041Z,5.80
2019-05-03T05:40:48.639Z,5.80
2019-05-03T05:43:17.084Z,5.90
2019-05-03T05:45:45.610Z,6.00
2019-05-03T05:48:24.933Z,6.00
2019-05-03T05:50:55.190Z,6.10
2019-05-03T05:53:25.261Z,6.20
2019-05-03T05:56:01.268Z,6.20
2019-05-03T05:58:34.895Z,6.30
2019-05-03T06:01:11.305Z,6.30
2019-05-03T06:03:39.833Z,6.40
2019-05-03T06:06:10.004Z,6.50
2019-05-03T06:08:44.561Z,6.70
2019-05-03T06:11:17.715Z,6.70
2019-05-03T06:13:50.957Z,6.80
2019-05-03T06:16:24.565Z,7.10
2019-05-03T06:18:54.979Z,7.20
2019-05-03T06:21:25.183Z,7.20
2019-05-03T06:23:56.331Z,7.10
2019-05-03T06:26:48.692Z,7.10
2019-05-03T06:29:17.218Z,7.10
2019-05-03T06:31:47.327Z,7.20
2019-05-03T06:34:15.871Z,7.20
2019-05-03T06:36:46.046Z,7.30
2019-05-03T06:39:15.454Z,7.40
2019-05-03T06:41:44.656Z,7.40
2019-05-03T06:44:14.481Z,7.50
2019-05-03T06:46:45.517Z,7.50
2019-05-03T06:49:15.348Z,7.50
2019-05-03T06:51:45.578Z,7.50
2019-05-03T06:54:15.702Z,7.60
2019-05-03T06:56:45.171Z,7.50
2019-05-03T06:59:15.979Z,7.60
2019-05-03T07:01:48.841Z,7.60
2019-05-03T07:04:57.457Z,7.70
2019-05-03T07:07:30.715Z,7.80
2019-05-03T07:10:06.675Z,7.90
2019-05-03T07:12:54.678Z,8.00
2019-05-03T07:15:25.003Z,8.10
2019-05-03T07:17:55.426Z,8.10
2019-05-03T07:20:25.483Z,8.20
2019-05-03T07:22:55.712Z,8.20
2019-05-03T07:25:25.665Z,8.20
2019-05-03T07:27:55.609Z,8.30
2019-05-03T07:30:24.887Z,8.30
2019-05-03T07:32:58.522Z,8.30
2019-05-03T07:35:27.032Z,8.40
2019-05-03T07:37:55.518Z,8.30
2019-05-03T07:40:25.314Z,8.40
2019-05-03T07:42:55.475Z,8.50
2019-05-03T07:45:25.473Z,8.50
2019-05-03T07:47:55.852Z,8.60
2019-05-03T07:50:25.872Z,8.70
2019-05-03T07:52:55.534Z,8.60
2019-05-03T07:55:42.756Z,8.70
2019-05-03T07:58:14.923Z,8.80
2019-05-03T08:00:44.618Z,8.80
2019-05-03T08:03:15.304Z,8.90
2019-05-03T08:05:45.440Z,8.70
2019-05-03T08:08:14.952Z,8.80
2019-05-03T08:10:45.026Z,9.00
2019-05-03T08:13:15.019Z,9.00
2019-05-03T08:15:45.192Z,8.90
2019-05-03T08:18:15.253Z,9.00
2019-05-03T08:20:45.142Z,9.00
2019-05-03T08:23:26.733Z,9.10
2019-05-03T08:25:44.626Z,9.20
2019-05-03T08:28:14.633Z,9.20
2019-05-03T08:31:01.812Z,9.20
2019-05-03T08:33:35.537Z,9.50
2019-05-03T08:36:04.835Z,9.60
2019-05-03T08:38:34.556Z,9.40
2019-05-03T08:41:05.305Z,9.50
2019-05-03T08:43:35.667Z,9.60
2019-05-03T08:46:04.766Z,9.60
2019-05-03T08:48:35.274Z,9.50
2019-05-03T08:51:04.526Z,9.70
2019-05-03T08:53:35.638Z,10.00
2019-05-03T08:56:05.144Z,9.90
2019-05-03T08:58:34.838Z,9.90
2019-05-03T09:01:05.497Z,9.90
2019-05-03T09:03:36.345Z,9.90
2019-05-03T09:06:25.629Z,9.90
2019-05-03T09:08:57.070Z,10.00
2019-05-03T09:11:31.911Z,9.80
2019-05-03T09:13:56.305Z,9.40
2019-05-03T09:16:25.186Z,9.20
2019-05-03T09:18:54.937Z,9.20
2019-05-03T09:21:25.564Z,8.90
2019-05-03T09:23:55.338Z,8.40
2019-05-03T09:26:28.859Z,8.30
2019-05-03T09:28:55.625Z,8.30
2019-05-03T09:31:24.763Z,8.00
2019-05-03T09:33:54.826Z,7.80
2019-05-03T09:36:25.330Z,7.80
2019-05-03T09:38:54.953Z,8.00
2019-05-03T09:41:25.683Z,8.20
2019-05-03T09:43:55.493Z,8.80
2019-05-03T09:46:26.332Z,9.30
2019-05-03T09:49:09.411Z,9.20
2019-05-03T09:51:25.556Z,9.00
2019-05-03T09:54:01.901Z,8.80
2019-05-03T09:56:55.849Z,8.50
2019-05-03T09:59:18.704Z,7.80
2019-05-03T10:01:47.165Z,7.10
2019-05-03T10:04:18.026Z,6.80
2019-05-03T10:06:45.847Z,6.60
2019-05-03T10:09:15.441Z,6.70
2019-05-03T10:11:45.899Z,7.00
2019-05-03T10:14:15.573Z,7.20
2019-05-03T10:16:46.024Z,7.30
2019-05-03T10:19:16.232Z,7.50
2019-05-03T10:21:46.549Z,7.40
2019-05-03T10:24:15.292Z,7.30
2019-05-03T10:26:45.575Z,7.40
2019-05-03T10:29:15.233Z,7.40
2019-05-03T10:31:51.052Z,7.20
2019-05-03T10:34:19.504Z,7.10
2019-05-03T10:36:48.024Z,6.90
2019-05-03T10:39:16.684Z,6.70
2019-05-03T10:41:45.442Z,6.60
2019-05-03T10:44:15.096Z,6.60
2019-05-03T10:46:45.260Z,6.50
2019-05-03T10:49:15.357Z,6.50
2019-05-03T10:51:48.319Z,6.40
2019-05-03T10:54:16.821Z,6.70
2019-05-03T10:56:46.967Z,7.00
2019-05-03T10:59:16.535Z,7.40
2019-05-03T11:01:49.454Z,7.60
2019-05-03T11:04:17.973Z,7.60
2019-05-03T11:06:46.560Z,8.00
2019-05-03T11:09:15.453Z,8.30
2019-05-03T11:11:45.295Z,8.30
2019-05-03T11:14:14.930Z,8.40
2019-05-03T11:16:45.795Z,8.30
2019-05-03T11:19:14.527Z,8.40
2019-05-03T11:21:45.314Z,8.30
2019-05-03T11:24:14.756Z,8.20
2019-05-03T11:26:45.500Z,8.30
2019-05-03T11:29:15.769Z,8.50
2019-05-03T11:31:48.964Z,8.60
2019-05-03T11:34:22.409Z,8.60
2019-05-03T11:37:07.408Z,8.70
2019-05-03T11:39:35.929Z,8.60
2019-05-03T11:42:04.768Z,8.60
2019-05-03T11:44:39.102Z,8.50
2019-05-03T11:47:09.556Z,8.60
2019-05-03T11:49:38.405Z,8.60
2019-05-03T11:52:07.242Z,8.90
2019-05-03T11:54:36.062Z,9.20
2019-05-03T11:57:12.523Z,9.30
2019-05-03T11:59:40.971Z,9.60
2019-05-03T12:02:24.795Z,9.70
2019-05-03T12:04:55.271Z,9.80
2019-05-03T12:07:38.964Z,9.60
2019-05-03T12:10:11.390Z,9.60
2019-05-03T12:12:50.911Z,9.70
2019-05-03T12:15:19.999Z,9.70
2019-05-03T12:17:58.832Z,9.90
2019-05-03T12:20:28.675Z,9.90
2019-05-03T12:22:57.143Z,9.90
2019-05-03T12:25:26.586Z,10.00
2019-05-03T12:27:55.614Z,9.90
2019-05-03T12:30:27.468Z,9.90
2019-05-03T12:32:54.762Z,10.00
2019-05-03T12:35:24.708Z,10.00
2019-05-03T12:37:55.368Z,10.00
2019-05-03T12:40:25.448Z,10.30
2019-05-03T12:42:55.211Z,10.50
2019-05-03T12:45:43.497Z,10.40
2019-05-03T12:48:12.231Z,10.40
2019-05-03T12:51:01.591Z,10.40
2019-05-03T12:53:30.308Z,10.50
2019-05-03T12:55:59.018Z,10.30
2019-05-03T12:58:45.802Z,10.40
2019-05-03T13:01:18.693Z,10.10
2019-05-03T13:03:48.861Z,10.20
2019-05-03T13:06:17.408Z,10.20
2019-05-03T13:08:46.052Z,10.30
2019-05-03T13:11:14.654Z,10.10
2019-05-03T13:13:45.059Z,10.10
2019-05-03T13:16:15.359Z,9.90
2019-05-03T13:18:45.755Z,9.80
2019-05-03T13:21:14.257Z,9.90
2019-05-03T13:23:42.699Z,9.80
2019-05-03T13:26:11.174Z,9.40
2019-05-03T13:28:39.735Z,9.10
2019-05-03T13:31:08.253Z,8.90
2019-05-03T13:33:36.775Z,8.70
2019-05-03T13:36:05.716Z,8.50
2019-05-03T13:38:34.989Z,8.50
2019-05-03T13:41:06.524Z,8.30
2019-05-03T13:43:35.486Z,8.10
2019-05-03T13:46:05.090Z,8.20
2019-05-03T13:48:42.614Z,8.20
2019-05-03T13:51:05.261Z,8.40
2019-05-03T13:53:34.845Z,8.60
2019-05-03T13:56:04.802Z,8.70
2019-05-03T13:58:35.707Z,8.80
2019-05-03T14:01:05.417Z,8.90
2019-05-03T14:03:35.280Z,8.90
2019-05-03T14:06:08.675Z,9.20
2019-05-03T14:08:35.012Z,9.30
2019-05-03T14:11:04.987Z,9.50
2019-05-03T14:13:35.448Z,9.80
2019-05-03T14:16:05.547Z,10.00
2019-05-03T14:18:35.442Z,9.70
2019-05-03T14:21:08.719Z,9.60
2019-05-03T14:23:55.209Z,9.70
2019-05-03T14:26:24.575Z,9.80
2019-05-03T14:28:54.839Z,10.30
2019-05-03T14:31:25.214Z,11.10
2019-05-03T14:33:55.886Z,11.60
2019-05-03T14:36:25.117Z,11.60
2019-05-03T14:38:54.925Z,11.50
2019-05-03T14:41:25.374Z,11.60
2019-05-03T14:43:55.739Z,11.80
2019-05-03T14:46:32.663Z,11.90
2019-05-03T14:48:55.006Z,12.40
2019-05-03T14:51:25.367Z,12.60
2019-05-03T14:53:54.294Z,13.00
2019-05-03T14:56:25.656Z,13.00
2019-05-03T14:58:56.069Z,12.70
2019-05-03T15:01:26.464Z,13.20
2019-05-03T15:03:55.110Z,13.10
2019-05-03T15:06:24.941Z,13.10
2019-05-03T15:08:54.726Z,13.30
2019-05-03T15:11:23.421Z,13.20
2019-05-03T15:13:51.908Z,13.80
2019-05-03T15:16:20.517Z,14.00
2019-05-03T15:18:49.151Z,13.90
2019-05-03T15:21:17.662Z,13.70
2019-05-03T15:23:46.114Z,14.10
2019-05-03T15:26:14.630Z,14.30
2019-05-03T15:28:44.875Z,14.40
2019-05-03T15:31:13.653Z,13.70
2019-05-03T15:33:42.182Z,14.20
2019-05-03T15:36:11.121Z,13.90
2019-05-03T15:38:39.663Z,13.90
2019-05-03T15:41:08.247Z,13.70
2019-05-03T15:43:54.862Z,13.80
2019-05-03T15:46:45.031Z,13.50
2019-05-03T15:49:15.211Z,13.20
2019-05-03T15:51:44.625Z,12.60
2019-05-03T15:54:15.201Z,12.50
2019-05-03T15:56:44.888Z,11.40
2019-05-03T15:59:14.952Z,11.10
2019-05-03T16:01:43.761Z,10.70
2019-05-03T16:04:14.232Z,10.50
2019-05-03T16:06:44.789Z,10.20
2019-05-03T16:09:15.251Z,9.70
2019-05-03T16:11:45.106Z,9.20
2019-05-03T16:14:15.333Z,8.70
2019-05-03T16:16:45.149Z,8.20
2019-05-03T16:19:14.688Z,8.00
2019-05-03T16:22:04.779Z,8.00
2019-05-03T16:24:33.044Z,7.90
2019-05-03T16:27:04.891Z,8.20
2019-05-03T16:29:33.599Z,8.10
2019-05-03T16:32:02.179Z,8.10
2019-05-03T16:34:30.818Z,8.10
2019-05-03T16:36:59.394Z,8.00
2019-05-03T16:39:27.856Z,8.00
2019-05-03T16:41:56.295Z,8.00
2019-05-03T16:44:24.884Z,8.10
2019-05-03T16:46:55.341Z,8.00
2019-05-03T16:49:24.655Z,8.10
2019-05-03T16:51:54.905Z,8.00
2019-05-03T16:54:25.447Z,8.00
2019-05-03T16:56:54.985Z,7.90
2019-05-03T16:59:24.739Z,7.80
2019-05-03T17:01:55.098Z,7.80
2019-05-03T17:04:27.210Z,7.80
2019-05-03T17:07:06.307Z,7.80
2019-05-03T17:09:39.173Z,7.70
2019-05-03T17:12:09.436Z,7.60
2019-05-03T17:14:38.165Z,7.60
2019-05-03T17:17:08.336Z,7.40
2019-05-03T17:19:36.794Z,6.90
2019-05-03T17:22:05.636Z,6.50
2019-05-03T17:24:35.322Z,5.90
2019-05-03T17:27:04.479Z,5.10
2019-05-03T17:29:34.972Z,4.80
2019-05-03T17:32:04.952Z,4.80
2019-05-03T17:34:34.636Z,4.90
2019-05-03T17:37:05.023Z,5.10
2019-05-03T17:39:45.511Z,5.20
2019-05-03T17:42:21.662Z,5.20
2019-05-03T17:44:51.210Z,5.10
2019-05-03T17:47:19.803Z,5.10
2019-05-03T17:49:48.285Z,5.20
2019-05-03T17:52:18.402Z,5.20
2019-05-03T17:54:48.583Z,5.30
2019-05-03T17:57:24.538Z,5.40
2019-05-03T17:59:54.957Z,5.30
2019-05-03T18:02:25.237Z,5.40
2019-05-03T18:04:58.179Z,5.30
2019-05-03T18:07:31.218Z,5.20
2019-05-03T18:10:01.322Z,5.30
2019-05-03T18:12:29.842Z,5.20
2019-05-03T18:14:58.291Z,5.10
2019-05-03T18:17:26.745Z,5.10
2019-05-03T18:19:55.385Z,4.90
2019-05-03T18:22:24.298Z,4.90
2019-05-03T18:24:54.606Z,4.90
2019-05-03T18:27:25.067Z,4.90
2019-05-03T18:29:55.419Z,4.80
2019-05-03T18:32:25.157Z,4.80
2019-05-03T18:34:54.597Z,4.80
2019-05-03T18:37:24.486Z,4.80
2019-05-03T18:39:54.731Z,4.80
2019-05-03T18:42:27.789Z,4.80
2019-05-03T18:44:57.897Z,4.90
2019-05-03T18:47:45.801Z,4.90
2019-05-03T18:50:35.003Z,5.00
2019-05-03T18:53:04.705Z,5.10
2019-05-03T18:55:34.390Z,5.10
2019-05-03T18:58:04.324Z,5.10
2019-05-03T19:00:35.146Z,5.10
2019-05-03T19:03:04.992Z,5.10
2019-05-03T19:05:35.097Z,5.00
2019-05-03T19:08:15.334Z,5.00
2019-05-03T19:10:48.569Z,5.00
2019-05-03T19:13:18.847Z,5.00
2019-05-03T19:15:55.055Z,5.00
2019-05-03T19:18:28.338Z,5.00
2019-05-03T19:20:56.930Z,5.00
2019-05-03T19:23:25.461Z,5.10
2019-05-03T19:25:55.241Z,5.00
2019-05-03T19:28:24.945Z,5.00
2019-05-03T19:30:54.901Z,5.00
2019-05-03T19:33:23.805Z,5.00
2019-05-03T19:35:52.300Z,5.00
2019-05-03T19:38:20.854Z,5.00
2019-05-03T19:40:49.366Z,5.00
2019-05-03T19:43:19.451Z,5.00
2019-05-03T19:45:47.943Z,4.90
2019-05-03T19:48:16.999Z,4.90
2019-05-03T19:50:45.552Z,4.90
2019-05-03T19:53:18.510Z,4.90
2019-05-03T19:55:50.388Z,4.90
2019-05-03T19:58:17.429Z,4.90
2019-05-03T20:00:51.029Z,4.90
2019-05-03T20:03:21.135Z,4.90
2019-05-03T20:05:57.188Z,4.90
2019-05-03T20:08:27.348Z,4.90
2019-05-03T20:11:15.712Z,4.90
2019-05-03T20:13:45.223Z,4.90
2019-05-03T20:16:15.317Z,4.90
2019-05-03T20:18:45.402Z,4.90
2019-05-03T20:21:14.978Z,4.90
2019-05-03T20:23:46.570Z,4.90
2019-05-03T20:26:15.007Z,4.50
2019-05-03T20:28:44.978Z,4.20
2019-05-03T20:31:14.149Z,4.10
2019-05-03T20:33:42.789Z,4.00
2019-05-03T20:36:11.490Z,4.00
2019-05-03T20:38:40.004Z,3.90
2019-05-03T20:41:08.614Z,3.90
2019-05-03T20:43:47.640Z,3.80
2019-05-03T20:46:17.789Z,3.80
2019-05-03T20:48:48.025Z,3.70
2019-05-03T20:51:16.685Z,3.70
2019-05-03T20:53:45.258Z,3.70
2019-05-03T20:56:15.436Z,3.70
2019-05-03T20:58:44.642Z,3.80
2019-05-03T21:01:15.169Z,3.70
2019-05-03T21:03:45.001Z,3.70
2019-05-03T21:06:15.276Z,3.70
2019-05-03T21:08:52.417Z,3.60
2019-05-03T21:11:14.810Z,3.60
2019-05-03T21:13:45.019Z,3.70
2019-05-03T21:16:20.905Z,3.70
2019-05-03T21:19:08.140Z,3.80
2019-05-03T21:21:40.808Z,3.80
2019-05-03T21:24:24.215Z,3.80
2019-05-03T21:26:54.692Z,3.90
2019-05-03T21:29:23.144Z,3.90
2019-05-03T21:31:51.587Z,4.00
2019-05-03T21:34:20.115Z,4.00
2019-05-03T21:36:48.568Z,3.90
2019-05-03T21:39:17.007Z,3.80
2019-05-03T21:41:45.557Z,3.60
2019-05-03T21:44:31.882Z,3.50
2019-05-03T21:47:18.625Z,3.40
2019-05-03T21:49:48.926Z,3.20
2019-05-03T21:52:20.741Z,3.20
2019-05-03T21:54:49.276Z,3.10
2019-05-03T21:57:17.830Z,3.00
2019-05-03T21:59:46.288Z,2.90
2019-05-03T22:02:15.459Z,2.80
2019-05-03T22:04:44.519Z,2.80
2019-05-03T22:07:13.143Z,2.80
2019-05-03T22:09:41.657Z,2.80
2019-05-03T22:12:10.175Z,2.90
2019-05-03T22:14:54.400Z,3.00
2019-05-03T22:17:40.597Z,3.10
2019-05-03T22:20:29.412Z,3.10
2019-05-03T22:22:59.583Z,3.20
2019-05-03T22:25:29.828Z,3.20
2019-05-03T22:27:58.351Z,3.20
2019-05-03T22:30:26.978Z,3.30
2019-05-03T22:32:55.540Z,3.30
2019-05-03T22:35:25.093Z,3.40
2019-05-03T22:37:55.039Z,3.40
2019-05-03T22:40:25.110Z,3.40
2019-05-03T22:42:53.969Z,3.40
2019-05-03T22:45:22.492Z,3.50
2019-05-03T22:47:50.940Z,3.50
2019-05-03T22:50:19.588Z,3.50
2019-05-03T22:52:48.044Z,3.50
2019-05-03T22:55:16.573Z,3.40
2019-05-03T22:57:45.142Z,3.40
2019-05-03T23:00:14.650Z,3.40
2019-05-03T23:02:45.422Z,3.40
2019-05-03T23:05:13.684Z,3.50
2019-05-03T23:07:42.133Z,3.50
2019-05-03T23:10:10.939Z,3.60
2019-05-03T23:12:39.515Z,3.60
2019-05-03T23:15:10.036Z,3.60
2019-05-03T23:17:38.496Z,3.70
2019-05-03T23:20:11.763Z,3.70
2019-05-03T23:22:40.216Z,3.70
2019-05-03T23:25:09.047Z,3.70
2019-05-03T23:27:37.627Z,3.70
2019-05-03T23:30:06.787Z,3.80
2019-05-03T23:32:35.243Z,3.80
2019-05-03T23:35:05.167Z,3.80
2019-05-03T23:37:34.642Z,3.80
2019-05-03T23:40:05.344Z,3.80
2019-05-03T23:42:35.029Z,3.80
2019-05-03T23:45:05.001Z,3.80
2019-05-03T23:47:52.828Z,3.80
2019-05-03T23:50:22.252Z,3.40
2019-05-03T23:52:50.716Z,3.10
2019-05-03T23:55:27.042Z,2.90
2019-05-03T23:57:55.565Z,2.80
